<?xml version="1.0" encoding="UTF-8"?><gpx version="1.1" creator="Relive" xmlns="http://www.topografix.com/GPX/1/1" xmlns:xsi="http://www.w3.org/2001/XMLSchema-instance" xsi:schemaLocation="http://www.topografix.com/GPX/1/1 http://www.topografix.com/GPX/1/1/gpx.xsd http://www.garmin.com/xmlschemas/TrackPointExtension/v1 http://www.garmin.com/xmlschemas/TrackPointExtensionv1.xsd http://www.garmin.com/xmlschemas/GpxExtensions/v3 http://www.garmin.com/xmlschemas/GpxExtensionsv3.xsd" xmlns:gpxtpx="http://www.garmin.com/xmlschemas/TrackPointExtension/v1" xmlns:gpxx="http://www.garmin.com/xmlschemas/GpxExtensions/v3"><metadata><time>2023-07-10T09:16:25.000Z</time><name>Padelky-Belansky Covid-ITB</name></metadata><trk><trkseg><trkpt lat="48.727784" lon="17.535247"><time>2023-07-10T09:16:25.000Z</time><ele>498.76</ele></trkpt><trkpt lat="48.7278" lon="17.535174"><time>2023-07-10T09:18:16.000Z</time><ele>498.85</ele></trkpt><trkpt lat="48.727839" lon="17.535124"><time>2023-07-10T09:18:19.000Z</time><ele>498.79</ele></trkpt><trkpt lat="48.727861" lon="17.535044"><time>2023-07-10T09:18:21.000Z</time><ele>497.97</ele></trkpt><trkpt lat="48.727848" lon="17.534717"><time>2023-07-10T09:18:25.000Z</time><ele>496.98</ele></trkpt><trkpt lat="48.727869" lon="17.534586"><time>2023-07-10T09:18:27.000Z</time><ele>496.03</ele></trkpt><trkpt lat="48.727871" lon="17.534446"><time>2023-07-10T09:18:29.000Z</time><ele>495.86</ele></trkpt><trkpt lat="48.727892" lon="17.534374"><time>2023-07-10T09:18:30.000Z</time><ele>495.05</ele></trkpt><trkpt lat="48.727908" lon="17.534304"><time>2023-07-10T09:18:31.000Z</time><ele>494.89</ele></trkpt><trkpt lat="48.727926" lon="17.534165"><time>2023-07-10T09:18:33.000Z</time><ele>494.97</ele></trkpt><trkpt lat="48.727945" lon="17.534027"><time>2023-07-10T09:18:35.000Z</time><ele>494.38</ele></trkpt><trkpt lat="48.727992" lon="17.533902"><time>2023-07-10T09:18:37.000Z</time><ele>493.46</ele></trkpt><trkpt lat="48.728021" lon="17.533838"><time>2023-07-10T09:18:38.000Z</time><ele>492.36</ele></trkpt><trkpt lat="48.728006" lon="17.533702"><time>2023-07-10T09:18:40.000Z</time><ele>492.39</ele></trkpt><trkpt lat="48.727975" lon="17.533623"><time>2023-07-10T09:18:42.000Z</time><ele>492.24</ele></trkpt><trkpt lat="48.727949" lon="17.533539"><time>2023-07-10T09:18:44.000Z</time><ele>491.81</ele></trkpt><trkpt lat="48.727932" lon="17.533455"><time>2023-07-10T09:18:45.000Z</time><ele>489.7</ele></trkpt><trkpt lat="48.727947" lon="17.533384"><time>2023-07-10T09:18:46.000Z</time><ele>489.41</ele></trkpt><trkpt lat="48.727966" lon="17.533289"><time>2023-07-10T09:18:47.000Z</time><ele>490.27</ele></trkpt><trkpt lat="48.72796" lon="17.533178"><time>2023-07-10T09:18:49.000Z</time><ele>491.51</ele></trkpt><trkpt lat="48.727966" lon="17.533051"><time>2023-07-10T09:18:51.000Z</time><ele>491.51</ele></trkpt><trkpt lat="48.727957" lon="17.532776"><time>2023-07-10T09:18:54.000Z</time><ele>487.02</ele></trkpt><trkpt lat="48.727964" lon="17.53268"><time>2023-07-10T09:18:55.000Z</time><ele>485.82</ele></trkpt><trkpt lat="48.727985" lon="17.532587"><time>2023-07-10T09:18:56.000Z</time><ele>484.4</ele></trkpt><trkpt lat="48.727991" lon="17.532495"><time>2023-07-10T09:18:57.000Z</time><ele>483.28</ele></trkpt><trkpt lat="48.728001" lon="17.532402"><time>2023-07-10T09:18:58.000Z</time><ele>482.88</ele></trkpt><trkpt lat="48.728017" lon="17.532318"><time>2023-07-10T09:18:59.000Z</time><ele>482.69</ele></trkpt><trkpt lat="48.728032" lon="17.532249"><time>2023-07-10T09:19:00.000Z</time><ele>483.43</ele></trkpt><trkpt lat="48.728039" lon="17.532174"><time>2023-07-10T09:19:01.000Z</time><ele>483.2</ele></trkpt><trkpt lat="48.728043" lon="17.532088"><time>2023-07-10T09:19:02.000Z</time><ele>482.97</ele></trkpt><trkpt lat="48.728056" lon="17.532001"><time>2023-07-10T09:19:03.000Z</time><ele>483.38</ele></trkpt><trkpt lat="48.728077" lon="17.531919"><time>2023-07-10T09:19:04.000Z</time><ele>482.66</ele></trkpt><trkpt lat="48.728099" lon="17.531833"><time>2023-07-10T09:19:05.000Z</time><ele>482.37</ele></trkpt><trkpt lat="48.728133" lon="17.531763"><time>2023-07-10T09:19:06.000Z</time><ele>483.41</ele></trkpt><trkpt lat="48.72816" lon="17.531709"><time>2023-07-10T09:19:07.000Z</time><ele>483.67</ele></trkpt><trkpt lat="48.728184" lon="17.531607"><time>2023-07-10T09:19:09.000Z</time><ele>483.76</ele></trkpt><trkpt lat="48.728214" lon="17.531499"><time>2023-07-10T09:19:11.000Z</time><ele>482.96</ele></trkpt><trkpt lat="48.728249" lon="17.531367"><time>2023-07-10T09:19:13.000Z</time><ele>483.06</ele></trkpt><trkpt lat="48.728263" lon="17.53127"><time>2023-07-10T09:19:15.000Z</time><ele>484.92</ele></trkpt><trkpt lat="48.728297" lon="17.531183"><time>2023-07-10T09:19:17.000Z</time><ele>485</ele></trkpt><trkpt lat="48.728325" lon="17.5311"><time>2023-07-10T09:19:19.000Z</time><ele>484.29</ele></trkpt><trkpt lat="48.728346" lon="17.530997"><time>2023-07-10T09:19:21.000Z</time><ele>484.75</ele></trkpt><trkpt lat="48.728357" lon="17.530881"><time>2023-07-10T09:19:23.000Z</time><ele>485.06</ele></trkpt><trkpt lat="48.728385" lon="17.530761"><time>2023-07-10T09:19:25.000Z</time><ele>483.19</ele></trkpt><trkpt lat="48.728383" lon="17.530653"><time>2023-07-10T09:19:27.000Z</time><ele>480.62</ele></trkpt><trkpt lat="48.72835" lon="17.530555"><time>2023-07-10T09:19:29.000Z</time><ele>480.89</ele></trkpt><trkpt lat="48.728271" lon="17.530405"><time>2023-07-10T09:19:31.000Z</time><ele>481</ele></trkpt><trkpt lat="48.72822" lon="17.530337"><time>2023-07-10T09:19:32.000Z</time><ele>479.66</ele></trkpt><trkpt lat="48.728208" lon="17.530271"><time>2023-07-10T09:19:33.000Z</time><ele>478.08</ele></trkpt><trkpt lat="48.728214" lon="17.530153"><time>2023-07-10T09:19:35.000Z</time><ele>476.58</ele></trkpt><trkpt lat="48.728269" lon="17.530024"><time>2023-07-10T09:19:37.000Z</time><ele>476.21</ele></trkpt><trkpt lat="48.728295" lon="17.529923"><time>2023-07-10T09:19:39.000Z</time><ele>474.09</ele></trkpt><trkpt lat="48.728265" lon="17.529802"><time>2023-07-10T09:19:41.000Z</time><ele>474.94</ele></trkpt><trkpt lat="48.728232" lon="17.529627"><time>2023-07-10T09:19:43.000Z</time><ele>473.28</ele></trkpt><trkpt lat="48.728226" lon="17.529529"><time>2023-07-10T09:19:44.000Z</time><ele>472.02</ele></trkpt><trkpt lat="48.728202" lon="17.529385"><time>2023-07-10T09:19:46.000Z</time><ele>470.16</ele></trkpt><trkpt lat="48.72818" lon="17.52929"><time>2023-07-10T09:19:47.000Z</time><ele>469.92</ele></trkpt><trkpt lat="48.728168" lon="17.529177"><time>2023-07-10T09:19:49.000Z</time><ele>469.51</ele></trkpt><trkpt lat="48.728162" lon="17.529058"><time>2023-07-10T09:19:51.000Z</time><ele>469.51</ele></trkpt><trkpt lat="48.728167" lon="17.528929"><time>2023-07-10T09:19:53.000Z</time><ele>468.81</ele></trkpt><trkpt lat="48.728162" lon="17.528855"><time>2023-07-10T09:19:54.000Z</time><ele>466.15</ele></trkpt><trkpt lat="48.727971" lon="17.528757"><time>2023-07-10T09:19:57.000Z</time><ele>467.45</ele></trkpt><trkpt lat="48.72791" lon="17.528756"><time>2023-07-10T09:19:58.000Z</time><ele>464.86</ele></trkpt><trkpt lat="48.727845" lon="17.528823"><time>2023-07-10T09:20:00.000Z</time><ele>466.36</ele></trkpt><trkpt lat="48.727802" lon="17.528849"><time>2023-07-10T09:20:01.000Z</time><ele>465.91</ele></trkpt><trkpt lat="48.727678" lon="17.528831"><time>2023-07-10T09:20:03.000Z</time><ele>464.25</ele></trkpt><trkpt lat="48.727608" lon="17.52881"><time>2023-07-10T09:20:04.000Z</time><ele>462.41</ele></trkpt><trkpt lat="48.727565" lon="17.528775"><time>2023-07-10T09:20:05.000Z</time><ele>462.18</ele></trkpt><trkpt lat="48.727539" lon="17.528708"><time>2023-07-10T09:20:06.000Z</time><ele>460.73</ele></trkpt><trkpt lat="48.727506" lon="17.528644"><time>2023-07-10T09:20:07.000Z</time><ele>459.94</ele></trkpt><trkpt lat="48.727458" lon="17.528584"><time>2023-07-10T09:20:08.000Z</time><ele>458.22</ele></trkpt><trkpt lat="48.727397" lon="17.528585"><time>2023-07-10T09:20:09.000Z</time><ele>457.96</ele></trkpt><trkpt lat="48.727344" lon="17.528572"><time>2023-07-10T09:20:10.000Z</time><ele>457.64</ele></trkpt><trkpt lat="48.727292" lon="17.528573"><time>2023-07-10T09:20:11.000Z</time><ele>456.63</ele></trkpt><trkpt lat="48.727244" lon="17.528564"><time>2023-07-10T09:20:14.000Z</time><ele>453.89</ele></trkpt><trkpt lat="48.727197" lon="17.528551"><time>2023-07-10T09:20:16.000Z</time><ele>451.84</ele></trkpt><trkpt lat="48.727147" lon="17.528546"><time>2023-07-10T09:20:17.000Z</time><ele>451.64</ele></trkpt><trkpt lat="48.727061" lon="17.528529"><time>2023-07-10T09:20:19.000Z</time><ele>449.44</ele></trkpt><trkpt lat="48.727007" lon="17.52849"><time>2023-07-10T09:20:20.000Z</time><ele>448.59</ele></trkpt><trkpt lat="48.726955" lon="17.528374"><time>2023-07-10T09:20:22.000Z</time><ele>448.35</ele></trkpt><trkpt lat="48.726948" lon="17.52827"><time>2023-07-10T09:20:23.000Z</time><ele>447.35</ele></trkpt><trkpt lat="48.72695" lon="17.528179"><time>2023-07-10T09:20:24.000Z</time><ele>446.94</ele></trkpt><trkpt lat="48.726961" lon="17.528089"><time>2023-07-10T09:20:25.000Z</time><ele>447.41</ele></trkpt><trkpt lat="48.727013" lon="17.528034"><time>2023-07-10T09:20:26.000Z</time><ele>446.26</ele></trkpt><trkpt lat="48.727032" lon="17.527957"><time>2023-07-10T09:20:27.000Z</time><ele>446.07</ele></trkpt><trkpt lat="48.726999" lon="17.527889"><time>2023-07-10T09:20:29.000Z</time><ele>444.32</ele></trkpt><trkpt lat="48.726981" lon="17.527827"><time>2023-07-10T09:20:32.000Z</time><ele>444.04</ele></trkpt><trkpt lat="48.726912" lon="17.527801"><time>2023-07-10T09:20:34.000Z</time><ele>443.05</ele></trkpt><trkpt lat="48.726844" lon="17.527785"><time>2023-07-10T09:20:36.000Z</time><ele>441.65</ele></trkpt><trkpt lat="48.726796" lon="17.527772"><time>2023-07-10T09:20:37.000Z</time><ele>441.26</ele></trkpt><trkpt lat="48.72671" lon="17.527744"><time>2023-07-10T09:20:39.000Z</time><ele>440.25</ele></trkpt><trkpt lat="48.726667" lon="17.527721"><time>2023-07-10T09:20:40.000Z</time><ele>440.43</ele></trkpt><trkpt lat="48.726606" lon="17.527654"><time>2023-07-10T09:20:42.000Z</time><ele>439.19</ele></trkpt><trkpt lat="48.726585" lon="17.527548"><time>2023-07-10T09:20:44.000Z</time><ele>436.41</ele></trkpt><trkpt lat="48.726607" lon="17.527435"><time>2023-07-10T09:20:46.000Z</time><ele>433.91</ele></trkpt><trkpt lat="48.726635" lon="17.527382"><time>2023-07-10T09:20:50.000Z</time><ele>433.27</ele></trkpt><trkpt lat="48.72664" lon="17.527288"><time>2023-07-10T09:21:04.000Z</time><ele>431.44</ele></trkpt><trkpt lat="48.726657" lon="17.527178"><time>2023-07-10T09:21:06.000Z</time><ele>429.75</ele></trkpt><trkpt lat="48.726705" lon="17.527112"><time>2023-07-10T09:21:08.000Z</time><ele>429.15</ele></trkpt><trkpt lat="48.726738" lon="17.527031"><time>2023-07-10T09:21:10.000Z</time><ele>426.99</ele></trkpt><trkpt lat="48.726743" lon="17.526927"><time>2023-07-10T09:21:13.000Z</time><ele>425.43</ele></trkpt><trkpt lat="48.726773" lon="17.526824"><time>2023-07-10T09:21:15.000Z</time><ele>424.56</ele></trkpt><trkpt lat="48.726787" lon="17.526716"><time>2023-07-10T09:21:17.000Z</time><ele>422.59</ele></trkpt><trkpt lat="48.72676" lon="17.526639"><time>2023-07-10T09:21:19.000Z</time><ele>423.3</ele></trkpt><trkpt lat="48.726715" lon="17.526578"><time>2023-07-10T09:21:21.000Z</time><ele>422.86</ele></trkpt><trkpt lat="48.726242" lon="17.52597"><time>2023-07-10T09:21:37.000Z</time><ele>410.54</ele></trkpt><trkpt lat="48.72619" lon="17.525942"><time>2023-07-10T09:21:39.000Z</time><ele>410.8</ele></trkpt><trkpt lat="48.726137" lon="17.525892"><time>2023-07-10T09:21:42.000Z</time><ele>410.28</ele></trkpt><trkpt lat="48.726112" lon="17.525809"><time>2023-07-10T09:21:44.000Z</time><ele>410.15</ele></trkpt><trkpt lat="48.726127" lon="17.525718"><time>2023-07-10T09:21:46.000Z</time><ele>410.23</ele></trkpt><trkpt lat="48.726174" lon="17.525657"><time>2023-07-10T09:21:48.000Z</time><ele>410.39</ele></trkpt><trkpt lat="48.726218" lon="17.525602"><time>2023-07-10T09:21:50.000Z</time><ele>409.04</ele></trkpt><trkpt lat="48.72626" lon="17.525539"><time>2023-07-10T09:21:52.000Z</time><ele>409.06</ele></trkpt><trkpt lat="48.726297" lon="17.525474"><time>2023-07-10T09:21:54.000Z</time><ele>408.69</ele></trkpt><trkpt lat="48.726362" lon="17.525438"><time>2023-07-10T09:21:56.000Z</time><ele>407.68</ele></trkpt><trkpt lat="48.726419" lon="17.525359"><time>2023-07-10T09:21:58.000Z</time><ele>405.31</ele></trkpt><trkpt lat="48.726462" lon="17.525249"><time>2023-07-10T09:22:00.000Z</time><ele>403.98</ele></trkpt><trkpt lat="48.726492" lon="17.525165"><time>2023-07-10T09:22:01.000Z</time><ele>403.76</ele></trkpt><trkpt lat="48.726526" lon="17.525116"><time>2023-07-10T09:22:02.000Z</time><ele>402.51</ele></trkpt><trkpt lat="48.726554" lon="17.525054"><time>2023-07-10T09:22:03.000Z</time><ele>402.45</ele></trkpt><trkpt lat="48.726615" lon="17.524998"><time>2023-07-10T09:22:05.000Z</time><ele>403.2</ele></trkpt><trkpt lat="48.726702" lon="17.524914"><time>2023-07-10T09:22:07.000Z</time><ele>403.11</ele></trkpt><trkpt lat="48.726745" lon="17.524846"><time>2023-07-10T09:22:08.000Z</time><ele>403.6</ele></trkpt><trkpt lat="48.726808" lon="17.524751"><time>2023-07-10T09:22:10.000Z</time><ele>401.35</ele></trkpt><trkpt lat="48.726937" lon="17.524587"><time>2023-07-10T09:22:13.000Z</time><ele>397.33</ele></trkpt><trkpt lat="48.72699" lon="17.524548"><time>2023-07-10T09:22:14.000Z</time><ele>398.06</ele></trkpt><trkpt lat="48.727039" lon="17.524527"><time>2023-07-10T09:22:15.000Z</time><ele>399.55</ele></trkpt><trkpt lat="48.727093" lon="17.524522"><time>2023-07-10T09:22:17.000Z</time><ele>399.77</ele></trkpt><trkpt lat="48.727142" lon="17.524502"><time>2023-07-10T09:22:19.000Z</time><ele>398.83</ele></trkpt><trkpt lat="48.727142" lon="17.524502"><time>2023-07-10T09:22:19.001Z</time><ele>398.83</ele></trkpt></trkseg></trk></gpx>